x

Cape Edgecumbe - 25nm Ssw Of Cape Edgecumbe, Ak (46084) Wave Buoy

11:50am - Tue 30th Aug 2016 All times are AKDT. -8 hours from GMT.

  • Sig Wave height 3.3ft
  • Swell Direction
  • Peak Period 14s
  • Average Period 5s
  • Wind
    13mph, 16mph gusts
  • Sea Temp 57°f
  • Air Temp 57°f
  • Sea Pressure 1010.3mb
  • Cape Edgecumbe - 25nm Ssw Of Cape Edgecumbe, Ak
  • Cape Edgecumbe - 25nm Ssw Of Cape Edgecumbe, Ak

More Historic Weather Station data

Upgrade to MSW Pro to gain access to the past 30 days of data for over 8000 Wavebouys and Weather Stations around the globe.

Join Pro

Comparision Forecast

View Surf forecast
   
Tue 08/30 11:50am 3.5ft 14s 5s 13 16 mph 1010.3mb 57f 57f
10:50am 3.5ft 14s 5s 13 16 mph 1010.2mb 56f 56f
9:50am 3.5ft 13s 5s 13 16 mph 1009.9mb 57f 56f
8:50am 4ft 14s 5s 13 16 mph 1009.8mb 57f 56f
7:50am 3.5ft 13s 5s 11
mph
1009.9mb 57f 56f
6:50am 3.5ft 14s 5s 16 18 mph 1009.7mb 57f 55f
5:50am 3ft 14s 6s 11 16 mph 1009.7mb 57f 56f
4:50am 3ft 14s 6s 4 7 mph 1009.5mb 57f 56f
3:50am 3.5ft 14s 6s 2 4 mph 1009.4mb 57f 57f
2:50am 3.5ft 14s 6s 4
mph
1009.2mb 57f 57f
1:50am 3.5ft 14s 5s 7 9 mph 1009.1mb 57f 57f
12:50am 3.5ft 14s 5s 11
mph
1008.9mb 57f 57f
Mon 08/29 11:50pm 3.5ft 14s 5s 11 13 mph 1008.8mb 57f 57f
10:50pm 3.5ft 14s 5s 11 13 mph 1008.7mb 57f 57f
9:50pm 3.5ft 13s 5s 13 18 mph 1008.7mb 57f 56f
8:50pm 3.5ft 14s 6s 11 13 mph 1008.7mb 57f 55f
7:50pm 3.5ft 13s 7s 13 16 mph 1008.5mb 57f 55f
6:50pm 3.5ft 14s 7s 11 13 mph 1008.5mb 57f 56f
5:50pm 3.5ft 14s 7s 9 11 mph 1008.6mb 57f 56f
4:50pm 3.5ft 8s 6s 9 11 mph 1008.4mb 56f 56f
3:50pm 3.5ft 15s 7s 9 11 mph 1008.4mb 56f 56f
2:50pm 3.5ft 14s 6s 13
mph
1008.2mb 56f 57f
1:50pm 4ft 15s 6s 7 9 mph 1008mb 56f 58f
12:50pm 4.5ft 9s 6s 4
mph
1007.7mb 57f 58f
11:50am 4ft 15s 6s 2
mph
1007.5mb 58f 58f
10:50am 4ft 10s 6s 7
mph
1007.4mb 58f 58f
9:50am 4.5ft 9s 7s 7
mph
1007.3mb 58f 58f
8:50am 4.5ft 6s 6s 7
mph
1007.4mb 58f 57f
7:50am 4.5ft 14s 7s 7 9 mph 1007.4mb 58f 58f
6:50am 4.5ft 8s 7s 4
mph
1007.4mb 58f 58f
5:50am 4.5ft 14s 7s 7 9 mph 1007.4mb 58f 58f
4:50am 4ft 15s 7s 7 9 mph 1007.6mb 58f 57f
3:50am 4ft 11s 7s 7 9 mph 1007.7mb 58f 57f
2:50am 4ft 11s 7s 4
mph
1007.7mb 58f 58f
1:50am 4.5ft 11s 7s 2
mph
1007.6mb 59f 59f
12:50am 4.5ft 8s 7s  -  mph 1007.8mb 58f 58f
Sun 08/28 11:50pm 4ft 8s 7s 2 4 mph 1007.6mb 58f 58f
10:50pm 4ft 8s 7s 2 4 mph 1007.5mb 58f 59f
9:50pm 4.5ft 8s 7s 2 4 mph 1007.4mb 59f 59f
8:50pm 4.5ft 8s 8s 4
mph
1007.7mb 59f 60f
7:50pm 4.5ft 11s 8s 4 7 mph 1007.8mb 59f 59f
6:50pm 4ft 8s 8s 7
mph
1007.8mb 59f 59f
5:50pm 4.5ft 8s 8s 9
mph
1008.1mb 59f 59f
4:50pm 3.5ft 8s 7s 9 11 mph 1008.4mb 59f 59f
3:50pm 4ft 8s 7s 9 13 mph 1008.6mb 58f 59f
2:50pm 4ft 8s 8s 9 11 mph 1008.6mb 58f 58f
1:50pm 4ft 8s 7s 11
mph
1008.8mb 58f 58f
12:50pm 3.5ft 7s 7s 11 13 mph 1008.8mb 58f 57f
11:50am 3.5ft 15s 6s 7 9 mph 1009.3mb 57f 57f
10:50am 4ft 15s 6s 7 9 mph 1009.4mb 57f 57f
9:50am 3.5ft 7s 6s 9
mph
1009.4mb 57f 57f
8:50am 3.5ft 8s 6s 9 11 mph 1009.4mb 58f 57f
7:50am 3ft 16s 7s 7 9 mph 1009.5mb 58f 58f
6:50am 3ft 15s 7s 9
mph
1009.4mb 58f 58f
5:50am 3ft 7s 6s 9
mph
1009.3mb 58f 58f
4:50am 3.5ft 7s 6s 4 7 mph 1009.4mb 58f 58f
3:50am 3.5ft 7s 6s 4
mph
1009.4mb 58f 58f
2:50am 3.5ft 7s 6s 4
mph
1009.3mb 58f 58f
1:50am 3.5ft 8s 6s 2
mph
1009.1mb 57f 58f
12:50am 3.5ft 7s 6s  -  2 mph 1009.2mb 57f 58f
Sat 08/27 11:50pm 3.5ft 7s 6s 2
mph
1009mb 58f 58f
10:50pm 3.5ft 7s 6s 2 4 mph 1009.1mb 58f 58f
9:50pm 4ft 7s 6s 2 4 mph 1009mb 58f 58f
8:50pm 4ft 8s 6s 4 11 mph 1009mb 58f 59f
7:50pm 4ft 8s 6s 4
mph
1008.9mb 59f 59f
6:50pm 4ft 7s 6s 4
mph
1009.1mb 59f 60f
5:50pm 4ft 6s 6s 4
mph
1009.2mb 59f 60f
4:50pm 4.5ft 8s 6s 4 7 mph 1009.4mb 59f 58f
3:50pm 4.5ft 7s 6s 7 9 mph 1009.6mb 59f 58f
2:50pm 4ft 7s 6s 7 9 mph 1009.6mb 59f 56f
1:50pm 5ft 7s 6s 4 7 mph 1009.8mb 58f 58f
12:50pm 5.5ft 8s 6s 2 4 mph 1009.6mb 58f 57f
11:50am 5.5ft 8s 6s 2 4 mph 1009.7mb 57f 56f
10:50am 5.5ft 8s 6s 4 7 mph 1009.9mb 57f 56f
9:50am 6ft 8s 6s 11 13 mph 1010mb 57f 55f
8:50am 5ft 8s 6s 13 16 mph 1010.2mb 57f 55f
7:50am 6ft 8s 6s 18 22 mph 1010.5mb 57f 55f
6:50am 6ft 8s 6s 18 20 mph 1010.8mb 57f 56f
5:50am 6ft 8s 6s 18 22 mph 1011.2mb 57f 56f
4:50am 6ft 8s 6s 18 22 mph 1011.7mb 56f 57f
3:50am 6.5ft 8s 6s 18 22 mph 1012.1mb 57f 57f
2:50am 6.5ft 8s 6s 16 20 mph 1012.6mb 57f 58f
1:50am 7ft 8s 6s 18 20 mph 1013mb 57f 58f
12:50am 8ft 8s 6s 18 22 mph 1012.9mb 57f 58f
Fri 08/26 11:50pm 8.5ft 8s 6s 13 16 mph 1013.3mb 56f 58f
10:50pm 7.5ft 8s 6s 13 18 mph 1013.7mb 56f 58f
9:50pm 7.5ft 8s 6s 16 18 mph 1013.7mb 56f 58f